sensor_id;sensor_type;location;lat;lon;timestamp;pressure;altitude;pressure_sealevel;temperature;humidity
44297;BME280;51842;47.450;8.654;2022-08-19T00:00:10;95232.28;;;16.39;100.00
44297;BME280;51842;47.450;8.654;2022-08-19T00:02:36;95237.97;;;16.37;100.00
44297;BME280;51842;47.450;8.654;2022-08-19T00:05:04;95237.19;;;16.37;100.00
44297;BME280;51842;47.450;8.654;2022-08-19T00:07:30;95245.84;;;16.34;100.00
44297;BME280;51842;47.450;8.654;2022-08-19T00:09:56;95243.47;;;16.32;100.00
44297;BME280;51842;47.450;8.654;2022-08-19T00:12:22;95238.91;;;16.33;100.00
44297;BME280;51842;47.450;8.654;2022-08-19T00:14:51;95242.06;;;16.35;100.00
44297;BME280;51842;47.450;8.654;2022-08-19T00:17:22;95238.59;;;16.34;100.00
44297;BME280;51842;47.450;8.654;2022-08-19T00:19:48;95241.88;;;16.31;100.00
44297;BME280;51842;47.450;8.654;2022-08-19T00:22:20;95247.25;;;16.31;100.00
44297;BME280;51842;47.450;8.654;2022-08-19T00:24:49;95249.16;;;16.31;100.00
44297;BME280;51842;47.450;8.654;2022-08-19T00:27:15;95256.91;;;16.32;100.00
44297;BME280;51842;47.450;8.654;2022-08-19T00:29:41;95262.78;;;16.34;100.00
44297;BME280;51842;47.450;8.654;2022-08-19T00:32:13;95265.78;;;16.33;100.00
44297;BME280;51842;47.450;8.654;2022-08-19T00:34:41;95266.56;;;16.33;100.00
44297;BME280;51842;47.450;8.654;2022-08-19T00:37:07;95267.84;;;16.36;100.00
44297;BME280;51842;47.450;8.654;2022-08-19T00:39:36;95256.78;;;16.37;100.00
44297;BME280;51842;47.450;8.654;2022-08-19T00:42:03;95259.97;;;16.39;100.00
44297;BME280;51842;47.450;8.654;2022-08-19T00:44:29;95252.69;;;16.40;100.00
44297;BME280;51842;47.450;8.654;2022-08-19T00:46:59;95258.53;;;16.42;100.00
44297;BME280;51842;47.450;8.654;2022-08-19T00:49:40;95250.78;;;16.40;100.00
44297;BME280;51842;47.450;8.654;2022-08-19T00:52:16;95246.53;;;16.39;100.00
44297;BME280;51842;47.450;8.654;2022-08-19T00:54:48;95241.16;;;16.39;100.00
44297;BME280;51842;47.450;8.654;2022-08-19T00:57:22;95243.50;;;16.41;100.00
44297;BME280;51842;47.450;8.654;2022-08-19T00:59:56;95241.31;;;16.43;100.00
44297;BME280;51842;47.450;8.654;2022-08-19T01:02:29;95238.63;;;16.43;100.00
44297;BME280;51842;47.450;8.654;2022-08-19T01:04:56;95234.03;;;16.43;100.00
44297;BME280;51842;47.450;8.654;2022-08-19T01:07:25;95238.78;;;16.47;100.00
44297;BME280;51842;47.450;8.654;2022-08-19T01:09:51;95236.13;;;16.47;100.00
44297;BME280;51842;47.450;8.654;2022-08-19T01:12:23;95229.94;;;16.46;100.00
44297;BME280;51842;47.450;8.654;2022-08-19T01:14:51;95240.38;;;16.48;100.00
44297;BME280;51842;47.450;8.654;2022-08-19T01:17:21;95229.63;;;16.48;100.00
44297;BME280;51842;47.450;8.654;2022-08-19T01:19:48;95222.19;;;16.45;100.00
44297;BME280;51842;47.450;8.654;2022-08-19T01:24:52;95225.97;;;16.43;100.00
44297;BME280;51842;47.450;8.654;2022-08-19T01:27:21;95224.41;;;16.42;100.00
44297;BME280;51842;47.450;8.654;2022-08-19T01:29:47;95224.41;;;16.42;100.00
44297;BME280;51842;47.450;8.654;2022-08-19T01:32:16;95232.47;;;16.42;100.00
44297;BME280;51842;47.450;8.654;2022-08-19T01:34:43;95235.16;;;16.42;100.00
44297;BME280;51842;47.450;8.654;2022-08-19T01:37:14;95231.66;;;16.42;100.00
44297;BME280;51842;47.450;8.654;2022-08-19T01:39:41;95232.47;;;16.42;100.00
44297;BME280;51842;47.450;8.654;2022-08-19T01:42:09;95227.09;;;16.42;100.00
44297;BME280;51842;47.450;8.654;2022-08-19T01:44:40;95235.44;;;16.41;100.00
44297;BME280;51842;47.450;8.654;2022-08-19T01:47:11;95235.16;;;16.42;100.00
44297;BME280;51842;47.450;8.654;2022-08-19T01:49:40;95227.88;;;16.43;100.00
44297;BME280;51842;47.450;8.654;2022-08-19T01:52:06;95229.78;;;16.42;100.00
44297;BME280;51842;47.450;8.654;2022-08-19T01:54:33;95222.50;;;16.43;100.00
44297;BME280;51842;47.450;8.654;2022-08-19T01:57:12;95218.41;;;16.46;100.00
44297;BME280;51842;47.450;8.654;2022-08-19T01:59:41;95210.00;;;16.47;100.00
44297;BME280;51842;47.450;8.654;2022-08-19T02:02:08;95213.19;;;16.49;100.00
44297;BME280;51842;47.450;8.654;2022-08-19T02:04:35;95215.88;;;16.49;100.00
44297;BME280;51842;47.450;8.654;2022-08-19T02:07:03;95211.28;;;16.50;100.00
44297;BME280;51842;47.450;8.654;2022-08-19T02:09:32;95218.25;;;16.51;100.00
44297;BME280;51842;47.450;8.654;2022-08-19T02:11:58;95211.78;;;16.52;100.00
44297;BME280;51842;47.450;8.654;2022-08-19T02:14:24;95219.03;;;16.51;100.00
44297;BME280;51842;47.450;8.654;2022-08-19T02:16:58;95216.84;;;16.53;100.00
44297;BME280;51842;47.450;8.654;2022-08-19T02:19:29;95212.25;;;16.54;100.00
44297;BME280;51842;47.450;8.654;2022-08-19T02:22:04;95210.69;;;16.53;100.00
44297;BME280;51842;47.450;8.654;2022-08-19T02:24:32;95203.72;;;16.52;100.00
44297;BME280;51842;47.450;8.654;2022-08-19T02:27:11;95206.72;;;16.50;100.00
44297;BME280;51842;47.450;8.654;2022-08-19T02:29:36;95215.41;;;16.47;100.00
44297;BME280;51842;47.450;8.654;2022-08-19T02:32:05;95216.50;;;16.46;100.00
44297;BME280;51842;47.450;8.654;2022-08-19T02:34:34;95227.25;;;16.46;100.00
44297;BME280;51842;47.450;8.654;2022-08-19T02:37:03;95222.97;;;16.45;100.00
44297;BME280;51842;47.450;8.654;2022-08-19T02:39:29;95233.44;;;16.47;100.00
44297;BME280;51842;47.450;8.654;2022-08-19T02:41:55;95228.03;;;16.47;100.00
44297;BME280;51842;47.450;8.654;2022-08-19T02:44:28;95225.34;;;16.47;100.00
44297;BME280;51842;47.450;8.654;2022-08-19T02:47:00;95216.19;;;16.48;100.00
44297;BME280;51842;47.450;8.654;2022-08-19T02:49:26;95221.25;;;16.49;100.00
44297;BME280;51842;47.450;8.654;2022-08-19T02:51:52;95224.41;;;16.51;100.00
44297;BME280;51842;47.450;8.654;2022-08-19T02:54:30;95214.78;;;16.50;100.00
44297;BME280;51842;47.450;8.654;2022-08-19T02:56:58;95216.34;;;16.51;100.00
44297;BME280;51842;47.450;8.654;2022-08-19T02:59:24;95214.94;;;16.54;100.00
44297;BME280;51842;47.450;8.654;2022-08-19T03:01:51;95211.97;;;16.55;100.00
44297;BME280;51842;47.450;8.654;2022-08-19T03:04:20;95216.84;;;16.53;100.00
44297;BME280;51842;47.450;8.654;2022-08-19T03:06:48;95215.72;;;16.54;100.00
44297;BME280;51842;47.450;8.654;2022-08-19T03:09:16;95220.81;;;16.56;100.00
44297;BME280;51842;47.450;8.654;2022-08-19T03:11:43;95220.81;;;16.56;100.00
44297;BME280;51842;47.450;8.654;2022-08-19T03:14:11;95220.47;;;16.57;100.00
44297;BME280;51842;47.450;8.654;2022-08-19T03:16:51;95229.38;;;16.58;100.00
44297;BME280;51842;47.450;8.654;2022-08-19T03:19:21;95230.16;;;16.58;100.00
44297;BME280;51842;47.450;8.654;2022-08-19T03:21:48;95227.75;;;16.57;100.00
44297;BME280;51842;47.450;8.654;2022-08-19T03:24:30;95218.41;;;16.54;100.00
44297;BME280;51842;47.450;8.654;2022-08-19T03:26:58;95220.81;;;16.56;100.00
44297;BME280;51842;47.450;8.654;2022-08-19T03:29:27;95220.03;;;16.55;100.00
44297;BME280;51842;47.450;8.654;2022-08-19T03:31:54;95227.75;;;16.57;100.00
44297;BME280;51842;47.450;8.654;2022-08-19T03:34:36;95230.16;;;16.58;100.00
44297;BME280;51842;47.450;8.654;2022-08-19T03:37:11;95228.56;;;16.57;100.00
44297;BME280;51842;47.450;8.654;2022-08-19T03:39:41;95229.38;;;16.58;100.00
44297;BME280;51842;47.450;8.654;2022-08-19T03:42:11;95232.34;;;16.56;100.00
44297;BME280;51842;47.450;8.654;2022-08-19T03:44:37;95226.19;;;16.56;100.00
44297;BME280;51842;47.450;8.654;2022-08-19T03:47:04;95231.56;;;16.56;100.00
44297;BME280;51842;47.450;8.654;2022-08-19T03:49:34;95219.69;;;16.57;100.00
44297;BME280;51842;47.450;8.654;2022-08-19T03:52:02;95212.41;;;16.57;100.00
44297;BME280;51842;47.450;8.654;2022-08-19T03:54:32;95205.47;;;16.56;100.00
44297;BME280;51842;47.450;8.654;2022-08-19T03:56:58;95214.03;;;16.58;100.00
44297;BME280;51842;47.450;8.654;2022-08-19T03:59:32;95208.94;;;16.57;100.00
44297;BME280;51842;47.450;8.654;2022-08-19T04:02:04;95214.94;;;16.54;100.00
44297;BME280;51842;47.450;8.654;2022-08-19T04:04:33;95220.03;;;16.55;100.00
44297;BME280;51842;47.450;8.654;2022-08-19T04:07:02;95219.41;;;16.58;100.00
44297;BME280;51842;47.450;8.654;2022-08-19T04:09:33;95218.63;;;16.58;100.00
44297;BME280;51842;47.450;8.654;2022-08-19T04:12:08;95213.84;;;16.55;100.00
44297;BME280;51842;47.450;8.654;2022-08-19T04:14:35;95210.06;;;16.56;100.00
44297;BME280;51842;47.450;8.654;2022-08-19T04:17:07;95208.78;;;16.53;100.00
44297;BME280;51842;47.450;8.654;2022-08-19T04:19:36;95209.88;;;16.52;100.00
44297;BME280;51842;47.450;8.654;2022-08-19T04:22:08;95211.78;;;16.52;100.00
44297;BME280;51842;47.450;8.654;2022-08-19T04:24:36;95215.25;;;16.52;100.00
44297;BME280;51842;47.450;8.654;2022-08-19T04:27:06;95219.38;;;16.50;100.00
44297;BME280;51842;47.450;8.654;2022-08-19T04:29:35;95223.47;;;16.47;100.00
44297;BME280;51842;47.450;8.654;2022-08-19T04:32:05;95228.03;;;16.47;100.00
44297;BME280;51842;47.450;8.654;2022-08-19T04:34:33;95236.91;;;16.47;100.00
44297;BME280;51842;47.450;8.654;2022-08-19T04:36:59;95235.31;;;16.46;100.00
44297;BME280;51842;47.450;8.654;2022-08-19T04:39:30;95236.13;;;16.47;100.00
44297;BME280;51842;47.450;8.654;2022-08-19T04:42:17;95230.41;;;16.48;100.00
44297;BME280;51842;47.450;8.654;2022-08-19T04:45:06;95233.09;;;16.48;100.00
44297;BME280;51842;47.450;8.654;2022-08-19T04:47:44;95232.31;;;16.48;100.00
44297;BME280;51842;47.450;8.654;2022-08-19T04:50:11;95237.69;;;16.48;100.00
44297;BME280;51842;47.450;8.654;2022-08-19T04:52:39;95233.09;;;16.48;100.00
44297;BME280;51842;47.450;8.654;2022-08-19T04:55:10;95234.69;;;16.49;100.00
44297;BME280;51842;47.450;8.654;2022-08-19T04:57:39;95241.16;;;16.48;100.00
44297;BME280;51842;47.450;8.654;2022-08-19T05:00:10;95250.66;;;16.46;100.00
44297;BME280;51842;47.450;8.654;2022-08-19T05:02:38;95249.38;;;16.43;100.00
44297;BME280;51842;47.450;8.654;2022-08-19T05:05:05;95256.34;;;16.44;100.00
44297;BME280;51842;47.450;8.654;2022-08-19T05:07:34;95264.56;;;16.48;100.00
44297;BME280;51842;47.450;8.654;2022-08-19T05:10:01;95263.28;;;16.45;100.00
44297;BME280;51842;47.450;8.654;2022-08-19T05:12:27;95261.09;;;16.47;100.00
44297;BME280;51842;47.450;8.654;2022-08-19T05:14:54;95257.63;;;16.47;100.00
44297;BME280;51842;47.450;8.654;2022-08-19T05:17:28;95260.31;;;16.47;100.00
44297;BME280;51842;47.450;8.654;2022-08-19T05:19:55;95268.88;;;16.49;100.00
44297;BME280;51842;47.450;8.654;2022-08-19T05:22:43;95266.31;;;16.43;100.00
44297;BME280;51842;47.450;8.654;2022-08-19T05:25:16;95268.38;;;16.47;100.00
44297;BME280;51842;47.450;8.654;2022-08-19T05:27:44;95276.13;;;16.48;100.00
44297;BME280;51842;47.450;8.654;2022-08-19T05:30:12;95283.09;;;16.49;100.00
44297;BME280;51842;47.450;8.654;2022-08-19T05:32:40;95286.06;;;16.48;100.00
44297;BME280;51842;47.450;8.654;2022-08-19T05:35:10;95286.56;;;16.50;100.00
44297;BME280;51842;47.450;8.654;2022-08-19T05:37:37;95292.91;;;16.54;100.00
44297;BME280;51842;47.450;8.654;2022-08-19T05:40:06;95287.06;;;16.52;100.00
44297;BME280;51842;47.450;8.654;2022-08-19T05:42:35;95290.22;;;16.54;100.00
44297;BME280;51842;47.450;8.654;2022-08-19T05:45:02;95296.72;;;16.53;100.00
44297;BME280;51842;47.450;8.654;2022-08-19T05:47:34;95291.63;;;16.51;100.00
44297;BME280;51842;47.450;8.654;2022-08-19T05:50:01;95287.69;;;16.49;100.00
44297;BME280;51842;47.450;8.654;2022-08-19T05:52:27;95294.13;;;16.48;100.00
44297;BME280;51842;47.450;8.654;2022-08-19T05:54:54;95290.50;;;16.43;100.00
44297;BME280;51842;47.450;8.654;2022-08-19T05:57:21;95288.59;;;16.44;100.00
44297;BME280;51842;47.450;8.654;2022-08-19T05:59:50;95282.72;;;16.42;100.00
44297;BME280;51842;47.450;8.654;2022-08-19T06:02:17;95278.44;;;16.41;100.00
44297;BME280;51842;47.450;8.654;2022-08-19T06:04:45;95284.16;;;16.39;100.00
44297;BME280;51842;47.450;8.654;2022-08-19T06:07:11;95279.56;;;16.40;100.00
44297;BME280;51842;47.450;8.654;2022-08-19T06:09:37;95281.16;;;16.41;100.00
44297;BME280;51842;47.450;8.654;2022-08-19T06:12:03;95286.53;;;16.41;100.00
44297;BME280;51842;47.450;8.654;2022-08-19T06:14:33;95284.00;;;16.45;100.00
44297;BME280;51842;47.450;8.654;2022-08-19T06:17:02;95288.59;;;16.44;100.00
44297;BME280;51842;47.450;8.654;2022-08-19T06:19:30;95288.59;;;16.44;100.00
44297;BME280;51842;47.450;8.654;2022-08-19T06:22:00;95285.41;;;16.42;100.00
44297;BME280;51842;47.450;8.654;2022-08-19T06:24:29;95286.69;;;16.45;100.00
44297;BME280;51842;47.450;8.654;2022-08-19T06:26:59;95290.00;;;16.41;100.00
44297;BME280;51842;47.450;8.654;2022-08-19T06:29:29;95292.56;;;16.47;100.00
44297;BME280;51842;47.450;8.654;2022-08-19T06:32:00;95291.44;;;16.48;100.00
44297;BME280;51842;47.450;8.654;2022-08-19T06:34:37;95287.84;;;16.52;100.00
44297;BME280;51842;47.450;8.654;2022-08-19T06:37:03;95289.88;;;16.47;100.00
44297;BME280;51842;47.450;8.654;2022-08-19T06:39:40;95285.47;;;16.51;100.00
44297;BME280;51842;47.450;8.654;2022-08-19T06:42:07;95296.22;;;16.51;100.00
44297;BME280;51842;47.450;8.654;2022-08-19T06:44:41;95291.34;;;16.53;100.00
44297;BME280;51842;47.450;8.654;2022-08-19T06:47:20;95299.88;;;16.55;100.00
44297;BME280;51842;47.450;8.654;2022-08-19T06:49:49;95297.38;;;16.58;100.00
44297;BME280;51842;47.450;8.654;2022-08-19T06:52:15;95297.66;;;16.57;100.00
44297;BME280;51842;47.450;8.654;2022-08-19T06:54:41;95304.94;;;16.56;100.00
44297;BME280;51842;47.450;8.654;2022-08-19T06:57:08;95304.81;;;16.61;100.00
44297;BME280;51842;47.450;8.654;2022-08-19T06:59:41;95304.16;;;16.56;100.00
44297;BME280;51842;47.450;8.654;2022-08-19T07:02:10;95299.88;;;16.55;100.00
44297;BME280;51842;47.450;8.654;2022-08-19T07:04:37;95311.72;;;16.54;100.00
44297;BME280;51842;47.450;8.654;2022-08-19T07:07:14;95308.25;;;16.53;100.00
44297;BME280;51842;47.450;8.654;2022-08-19T07:09:43;95310.31;;;16.56;100.00
44297;BME280;51842;47.450;8.654;2022-08-19T07:12:13;95301.16;;;16.57;100.00
44297;BME280;51842;47.450;8.654;2022-08-19T07:14:42;95314.13;;;16.55;100.00
44297;BME280;51842;47.450;8.654;2022-08-19T07:17:12;95312.41;;;16.59;100.00
44297;BME280;51842;47.450;8.654;2022-08-19T07:19:41;95312.09;;;16.61;100.00
44297;BME280;51842;47.450;8.654;2022-08-19T07:22:12;95314.47;;;16.62;100.00
44297;BME280;51842;47.450;8.654;2022-08-19T07:24:41;95319.84;;;16.62;100.00
44297;BME280;51842;47.450;8.654;2022-08-19T07:27:07;95326.94;;;16.58;100.00
44297;BME280;51842;47.450;8.654;2022-08-19T07:29:36;95320.34;;;16.64;100.00
44297;BME280;51842;47.450;8.654;2022-08-19T07:32:05;95324.59;;;16.65;100.00
44297;BME280;51842;47.450;8.654;2022-08-19T07:34:33;95328.56;;;16.68;100.00
44297;BME280;51842;47.450;8.654;2022-08-19T07:37:06;95321.47;;;16.72;100.00
44297;BME280;51842;47.450;8.654;2022-08-19T07:39:37;95321.97;;;16.74;100.00
44297;BME280;51842;47.450;8.654;2022-08-19T07:42:09;95323.56;;;16.75;100.00
44297;BME280;51842;47.450;8.654;2022-08-19T07:44:37;95331.50;;;16.80;100.00
44297;BME280;51842;47.450;8.654;2022-08-19T07:47:04;95329.13;;;16.79;100.00
44297;BME280;51842;47.450;8.654;2022-08-19T07:49:30;95333.59;;;16.83;100.00
44297;BME280;51842;47.450;8.654;2022-08-19T07:52:08;95337.97;;;16.79;100.00
44297;BME280;51842;47.450;8.654;2022-08-19T07:54:46;95344.03;;;16.85;100.00
44297;BME280;51842;47.450;8.654;2022-08-19T07:57:11;95353.38;;;16.87;100.00
44297;BME280;51842;47.450;8.654;2022-08-19T07:59:37;95349.91;;;16.87;100.00
44297;BME280;51842;47.450;8.654;2022-08-19T08:02:11;95351.47;;;16.88;100.00
44297;BME280;51842;47.450;8.654;2022-08-19T08:04:37;95348.94;;;16.92;100.00
44297;BME280;51842;47.450;8.654;2022-08-19T08:07:34;95359.53;;;16.88;100.00
44297;BME280;51842;47.450;8.654;2022-08-19T08:10:22;95367.50;;;16.93;100.00
44297;BME280;51842;47.450;8.654;2022-08-19T08:12:48;95362.09;;;16.93;100.00
44297;BME280;51842;47.450;8.654;2022-08-19T08:15:16;95368.28;;;16.94;100.00
44297;BME280;51842;47.450;8.654;2022-08-19T08:17:43;95367.16;;;16.95;100.00
44297;BME280;51842;47.450;8.654;2022-08-19T08:20:12;95376.66;;;16.92;100.00
44297;BME280;51842;47.450;8.654;2022-08-19T08:22:45;95377.91;;;16.86;100.00
44297;BME280;51842;47.450;8.654;2022-08-19T08:25:31;95381.69;;;16.85;100.00
44297;BME280;51842;47.450;8.654;2022-08-19T08:27:57;95384.38;;;16.85;100.00
44297;BME280;51842;47.450;8.654;2022-08-19T08:30:30;95393.06;;;16.82;100.00
44297;BME280;51842;47.450;8.654;2022-08-19T08:33:01;95401.28;;;16.85;100.00
44297;BME280;51842;47.450;8.654;2022-08-19T08:35:29;95400.94;;;16.78;100.00
44297;BME280;51842;47.450;8.654;2022-08-19T08:38:05;95396.28;;;16.70;100.00
44297;BME280;51842;47.450;8.654;2022-08-19T08:41:02;95404.53;;;16.74;100.00
44297;BME280;51842;47.450;8.654;2022-08-19T08:43:44;95406.13;;;16.75;100.00
44297;BME280;51842;47.450;8.654;2022-08-19T08:46:47;95411.63;;;16.70;100.00
44297;BME280;51842;47.450;8.654;2022-08-19T08:49:50;95413.53;;;16.69;100.00
44297;BME280;51842;47.450;8.654;2022-08-19T08:52:39;95414.91;;;16.66;100.00
44297;BME280;51842;47.450;8.654;2022-08-19T08:55:19;95423.59;;;16.63;100.00
44297;BME280;51842;47.450;8.654;2022-08-19T08:58:09;95426.47;;;16.67;100.00
44297;BME280;51842;47.450;8.654;2022-08-19T09:00:46;95425.38;;;16.68;100.00
44297;BME280;51842;47.450;8.654;2022-08-19T09:03:27;95436.25;;;16.63;100.00
44297;BME280;51842;47.450;8.654;2022-08-19T09:09:45;95434.06;;;16.65;100.00
44297;BME280;51842;47.450;8.654;2022-08-19T09:16:32;95438.59;;;16.56;100.00
44297;BME280;51842;47.450;8.654;2022-08-19T09:18:46;95441.28;;;16.56;100.00
44297;BME280;51842;47.450;8.654;2022-08-19T09:21:18;95438.41;;;16.52;100.00
44297;BME280;51842;47.450;8.654;2022-08-19T09:23:54;95440.97;;;16.57;100.00
44297;BME280;51842;47.450;8.654;2022-08-19T09:26:26;95446.03;;;16.59;100.00
44297;BME280;51842;47.450;8.654;2022-08-19T09:28:53;95438.28;;;16.57;100.00
44297;BME280;51842;47.450;8.654;2022-08-19T09:31:27;95439.56;;;16.60;100.00
44297;BME280;51842;47.450;8.654;2022-08-19T09:33:59;95443.47;;;16.54;100.00
44297;BME280;51842;47.450;8.654;2022-08-19T09:36:29;95444.94;;;16.60;100.00
44297;BME280;51842;47.450;8.654;2022-08-19T09:38:59;95446.84;;;16.59;100.00
44297;BME280;51842;47.450;8.654;2022-08-19T09:41:27;95445.94;;;16.64;100.00
44297;BME280;51842;47.450;8.654;2022-08-19T09:43:56;95450.38;;;16.69;100.00
44297;BME280;51842;47.450;8.654;2022-08-19T09:46:26;95458.34;;;16.74;100.00
44297;BME280;51842;47.450;8.654;2022-08-19T09:48:54;95463.44;;;16.75;100.00
44297;BME280;51842;47.450;8.654;2022-08-19T09:51:26;95465.22;;;16.66;100.00
44297;BME280;51842;47.450;8.654;2022-08-19T09:54:00;95471.56;;;16.70;100.00
44297;BME280;51842;47.450;8.654;2022-08-19T09:56:28;95475.88;;;16.71;100.00
44297;BME280;51842;47.450;8.654;2022-08-19T09:58:54;95476.16;;;16.70;100.00
44297;BME280;51842;47.450;8.654;2022-08-19T10:01:30;95469.72;;;16.71;100.00
44297;BME280;51842;47.450;8.654;2022-08-19T10:04:00;95477.38;;;16.63;100.00
44297;BME280;51842;47.450;8.654;2022-08-19T10:06:29;95475.50;;;16.64;100.00
44297;BME280;51842;47.450;8.654;2022-08-19T10:08:59;95479.28;;;16.63;100.00
44297;BME280;51842;47.450;8.654;2022-08-19T10:11:26;95478.66;;;16.66;100.00
44297;BME280;51842;47.450;8.654;2022-08-19T10:13:59;95475.69;;;16.68;100.00
44297;BME280;51842;47.450;8.654;2022-08-19T10:16:28;95481.06;;;16.68;100.00
44297;BME280;51842;47.450;8.654;2022-08-19T10:18:54;95481.19;;;16.62;100.00
44297;BME280;51842;47.450;8.654;2022-08-19T10:21:26;95487.06;;;16.64;100.00
44297;BME280;51842;47.450;8.654;2022-08-19T10:23:59;95484.06;;;16.66;100.00
44297;BME280;51842;47.450;8.654;2022-08-19T10:26:35;95474.69;;;16.63;100.00
44297;BME280;51842;47.450;8.654;2022-08-19T10:29:04;95484.38;;;16.64;100.00
44297;BME280;51842;47.450;8.654;2022-08-19T10:31:34;95479.28;;;16.63;100.00
44297;BME280;51842;47.450;8.654;2022-08-19T10:34:01;95471.72;;;16.65;100.00
44297;BME280;51842;47.450;8.654;2022-08-19T10:36:36;95471.09;;;16.68;100.00
44297;BME280;51842;47.450;8.654;2022-08-19T10:39:09;95475.88;;;16.71;100.00
44297;BME280;51842;47.450;8.654;2022-08-19T10:41:40;95475.25;;;16.74;100.00
44297;BME280;51842;47.450;8.654;2022-08-19T10:44:13;95478.75;;;16.75;100.00
44297;BME280;51842;47.450;8.654;2022-08-19T10:46:43;95477.16;;;16.74;100.00
44297;BME280;51842;47.450;8.654;2022-08-19T10:49:18;95481.97;;;16.77;100.00
44297;BME280;51842;47.450;8.654;2022-08-19T10:51:45;95485.44;;;16.77;100.00
44297;BME280;51842;47.450;8.654;2022-08-19T10:54:30;95482.94;;;16.81;100.00
44297;BME280;51842;47.450;8.654;2022-08-19T10:57:16;95482.13;;;16.80;100.00
44297;BME280;51842;47.450;8.654;2022-08-19T10:59:48;95485.53;;;16.72;100.00
44297;BME280;51842;47.450;8.654;2022-08-19T11:02:14;95489.22;;;16.76;100.00
44297;BME280;51842;47.450;8.654;2022-08-19T11:04:41;95486.72;;;16.80;100.00
44297;BME280;51842;47.450;8.654;2022-08-19T11:07:12;95489.09;;;16.81;100.00
44297;BME280;51842;47.450;8.654;2022-08-19T11:09:42;95499.84;;;16.81;100.00
44297;BME280;51842;47.450;8.654;2022-08-19T11:12:13;95492.47;;;16.87;100.00
44297;BME280;51842;47.450;8.654;2022-08-19T11:14:43;95496.72;;;16.88;100.00
44297;BME280;51842;47.450;8.654;2022-08-19T11:17:09;95491.78;;;16.81;100.00
44297;BME280;51842;47.450;8.654;2022-08-19T11:19:36;95495.16;;;16.73;100.00
44297;BME280;51842;47.450;8.654;2022-08-19T11:22:09;95493.97;;;16.79;100.00
44297;BME280;51842;47.450;8.654;2022-08-19T11:24:36;95504.63;;;16.84;100.00
44297;BME280;51842;47.450;8.654;2022-08-19T11:27:09;95503.59;;;16.94;100.00
44297;BME280;51842;47.450;8.654;2022-08-19T11:29:39;95504.53;;;16.98;100.00
44297;BME280;51842;47.450;8.654;2022-08-19T11:32:09;95503.75;;;16.98;100.00
44297;BME280;51842;47.450;8.654;2022-08-19T11:34:36;95515.03;;;17.00;100.00
44297;BME280;51842;47.450;8.654;2022-08-19T11:37:07;95510.13;;;17.02;100.00
44297;BME280;51842;47.450;8.654;2022-08-19T11:39:36;95517.28;;;17.06;100.00
44297;BME280;51842;47.450;8.654;2022-08-19T11:42:06;95520.06;;;17.01;100.00
44297;BME280;51842;47.450;8.654;2022-08-19T11:44:55;95516.75;;;16.96;100.00
44297;BME280;51842;47.450;8.654;2022-08-19T11:47:21;95512.94;;;16.97;100.00
44297;BME280;51842;47.450;8.654;2022-08-19T11:49:50;95523.88;;;17.00;100.00
44297;BME280;51842;47.450;8.654;2022-08-19T11:52:22;95523.75;;;17.05;100.00
44297;BME280;51842;47.450;8.654;2022-08-19T11:54:48;95524.22;;;17.07;100.00
44297;BME280;51842;47.450;8.654;2022-08-19T11:57:20;95522.53;;;17.11;100.00
44297;BME280;51842;47.450;8.654;2022-08-19T11:59:52;95524.13;;;17.13;100.00
44297;BME280;51842;47.450;8.654;2022-08-19T12:02:21;95530.00;;;17.15;100.00
44297;BME280;51842;47.450;8.654;2022-08-19T12:04:47;95520.50;;;17.17;100.00
44297;BME280;51842;47.450;8.654;2022-08-19T12:07:13;95524.00;;;17.18;100.00
44297;BME280;51842;47.450;8.654;2022-08-19T12:09:39;95528.44;;;17.22;100.00
44297;BME280;51842;47.450;8.654;2022-08-19T12:12:11;95535.00;;;17.30;100.00
44297;BME280;51842;47.450;8.654;2022-08-19T12:14:37;95529.00;;;17.33;100.00
44297;BME280;51842;47.450;8.654;2022-08-19T12:17:09;95532.66;;;17.37;100.00
44297;BME280;51842;47.450;8.654;2022-08-19T12:19:42;95520.78;;;17.38;100.00
44297;BME280;51842;47.450;8.654;2022-08-19T12:22:11;95529.97;;;17.37;100.00
44297;BME280;51842;47.450;8.654;2022-08-19T12:24:38;95532.34;;;17.39;100.00
44297;BME280;51842;47.450;8.654;2022-08-19T12:27:04;95537.25;;;17.37;100.00
44297;BME280;51842;47.450;8.654;2022-08-19T12:29:30;95532.03;;;17.40;100.00
44297;BME280;51842;47.450;8.654;2022-08-19T12:32:04;95528.72;;;17.43;100.00
44297;BME280;51842;47.450;8.654;2022-08-19T12:34:33;95525.31;;;17.60;100.00
44297;BME280;51842;47.450;8.654;2022-08-19T12:37:04;95525.66;;;17.67;100.00
44297;BME280;51842;47.450;8.654;2022-08-19T12:39:38;95521.25;;;17.71;100.00
44297;BME280;51842;47.450;8.654;2022-08-19T12:42:09;95527.09;;;17.73;100.00
44297;BME280;51842;47.450;8.654;2022-08-19T12:44:40;95517.03;;;17.79;100.00
44297;BME280;51842;47.450;8.654;2022-08-19T12:47:10;95524.13;;;17.75;100.00
44297;BME280;51842;47.450;8.654;2022-08-19T12:49:37;95521.78;;;17.82;100.00
44297;BME280;51842;47.450;8.654;2022-08-19T12:52:08;95516.44;;;17.91;100.00
44297;BME280;51842;47.450;8.654;2022-08-19T12:54:38;95521.84;;;17.99;100.00
44297;BME280;51842;47.450;8.654;2022-08-19T12:57:08;95519.28;;;17.94;100.00
44297;BME280;51842;47.450;8.654;2022-08-19T12:59:37;95523.91;;;17.94;100.00
44297;BME280;51842;47.450;8.654;2022-08-19T13:02:05;95529.28;;;17.94;100.00
44297;BME280;51842;47.450;8.654;2022-08-19T13:04:33;95529.13;;;17.90;99.65
44297;BME280;51842;47.450;8.654;2022-08-19T13:07:07;95522.78;;;17.95;99.48
44297;BME280;51842;47.450;8.654;2022-08-19T13:09:35;95520.91;;;18.04;100.00
44297;BME280;51842;47.450;8.654;2022-08-19T13:12:05;95531.09;;;18.16;100.00
44297;BME280;51842;47.450;8.654;2022-08-19T13:14:34;95523.94;;;18.11;98.67
44297;BME280;51842;47.450;8.654;2022-08-19T13:17:01;95522.97;;;18.07;99.28